createdAt,value
2023-03-20T00:01:41.703Z,15.65
2023-03-20T00:04:27.490Z,18.33
2023-03-20T00:07:12.737Z,16.83
2023-03-20T00:09:58.788Z,16.70
2023-03-20T00:12:46.925Z,23.95
2023-03-20T00:15:43.300Z,19.45
2023-03-20T00:18:31.949Z,29.33
2023-03-20T00:21:18.927Z,15.73
2023-03-20T00:24:04.969Z,22.25
2023-03-20T00:26:52.268Z,24.40
2023-03-20T00:29:38.245Z,23.65
2023-03-20T00:32:25.162Z,20.55
2023-03-20T00:35:28.064Z,20.80
2023-03-20T00:38:16.354Z,32.90
2023-03-20T00:41:02.003Z,21.30
2023-03-20T00:43:54.360Z,20.27
2023-03-20T00:46:40.273Z,22.13
2023-03-20T00:49:32.639Z,28.15
2023-03-20T00:52:19.525Z,24.67
2023-03-20T00:55:05.793Z,27.52
2023-03-20T00:58:01.060Z,21.20
2023-03-20T01:00:47.565Z,34.22
2023-03-20T01:03:33.058Z,24.33
2023-03-20T01:06:19.021Z,32.30
2023-03-20T01:09:05.752Z,27.75
2023-03-20T01:11:53.020Z,35.05
2023-03-20T01:14:39.202Z,28.17
2023-03-20T01:17:26.508Z,28.08
2023-03-20T01:20:23.255Z,30.55
2023-03-20T01:23:09.767Z,35.28
2023-03-20T01:25:55.469Z,30.73
2023-03-20T01:28:40.776Z,34.95
2023-03-20T01:31:26.617Z,31.00
2023-03-20T01:34:16.335Z,30.90
2023-03-20T01:37:01.937Z,39.67
2023-03-20T01:39:48.134Z,33.22
2023-03-20T01:42:33.687Z,38.17
2023-03-20T01:45:23.741Z,41.58
2023-03-20T01:48:18.636Z,39.28
2023-03-20T01:51:04.687Z,43.58
2023-03-20T01:54:04.872Z,39.85
2023-03-20T01:56:58.972Z,37.25
2023-03-20T01:59:49.927Z,35.92
2023-03-20T02:02:42.553Z,34.58
2023-03-20T02:05:28.314Z,41.40
2023-03-20T02:08:29.015Z,35.00
2023-03-20T02:11:17.044Z,35.45
2023-03-20T02:14:02.897Z,35.03
2023-03-20T02:16:55.732Z,44.47
2023-03-20T02:20:11.401Z,42.08
2023-03-20T02:22:59.626Z,36.17
2023-03-20T02:25:45.842Z,40.47
2023-03-20T02:29:14.293Z,33.40
2023-03-20T02:32:02.894Z,35.53
2023-03-20T02:35:05.852Z,37.47
2023-03-20T02:38:25.942Z,35.60
2023-03-20T02:41:22.000Z,44.33
2023-03-20T02:44:16.557Z,44.20
2023-03-20T02:47:13.205Z,41.17
2023-03-20T02:50:20.829Z,43.72
2023-03-20T02:53:32.953Z,43.05
2023-03-20T02:56:34.095Z,35.85
2023-03-20T02:59:52.335Z,42.00
2023-03-20T03:02:50.733Z,43.67
2023-03-20T03:05:42.822Z,39.47
2023-03-20T03:08:32.683Z,38.75
2023-03-20T03:11:18.750Z,39.03
2023-03-20T03:14:09.682Z,37.17
2023-03-20T03:16:59.196Z,39.70
2023-03-20T03:19:50.421Z,31.92
2023-03-20T03:22:36.478Z,33.10
2023-03-20T03:25:25.753Z,37.83
2023-03-20T03:28:21.271Z,41.75
2023-03-20T03:31:12.259Z,33.85
2023-03-20T03:33:59.899Z,32.97
2023-03-20T03:36:58.513Z,30.90
2023-03-20T03:40:02.775Z,29.00
2023-03-20T03:43:12.315Z,31.67
2023-03-20T03:46:04.551Z,33.55
2023-03-20T03:48:55.729Z,29.98
2023-03-20T03:51:45.457Z,26.90
2023-03-20T03:54:38.228Z,32.42
2023-03-20T03:58:15.134Z,36.65
2023-03-20T04:01:07.897Z,28.63
2023-03-20T04:03:57.720Z,28.52
2023-03-20T04:06:43.546Z,38.72
2023-03-20T04:09:29.432Z,36.22
2023-03-20T04:12:35.320Z,30.85
2023-03-20T04:15:21.717Z,29.35
2023-03-20T04:18:07.065Z,29.73
2023-03-20T04:20:53.744Z,33.22
2023-03-20T04:23:39.316Z,29.33
2023-03-20T04:26:25.318Z,29.88
2023-03-20T04:29:11.584Z,31.33
2023-03-20T04:32:08.409Z,28.80
2023-03-20T04:35:19.229Z,32.45
2023-03-20T04:38:10.362Z,30.70
2023-03-20T04:40:56.878Z,34.75
2023-03-20T04:43:42.358Z,28.88
2023-03-20T04:46:27.970Z,32.42
2023-03-20T04:49:13.880Z,35.17
2023-03-20T04:52:01.606Z,33.05
2023-03-20T04:54:55.395Z,29.83
2023-03-20T04:57:41.261Z,41.58
2023-03-20T05:00:28.993Z,31.02
2023-03-20T05:03:14.369Z,36.00
2023-03-20T05:06:00.437Z,41.38
2023-03-20T05:08:45.844Z,35.88
2023-03-20T05:11:31.618Z,29.70
2023-03-20T05:14:38.443Z,27.13
2023-03-20T05:17:41.887Z,24.98
2023-03-20T05:20:45.805Z,37.90
2023-03-20T05:23:49.672Z,30.02
2023-03-20T05:26:58.602Z,42.13
2023-03-20T05:30:04.605Z,34.42
2023-03-20T05:33:17.727Z,36.58
2023-03-20T05:36:24.564Z,41.60
2023-03-20T05:39:14.591Z,31.40
2023-03-20T05:42:09.054Z,32.90
2023-03-20T05:45:10.470Z,30.75
2023-03-20T05:48:15.706Z,30.95
2023-03-20T05:51:32.279Z,33.90
2023-03-20T05:54:41.652Z,35.33
2023-03-20T05:57:49.955Z,37.67
2023-03-20T06:01:05.021Z,35.05
2023-03-20T06:04:18.326Z,36.08
2023-03-20T06:07:30.276Z,28.73
2023-03-20T06:10:36.076Z,38.10
2023-03-20T06:13:21.543Z,40.85
2023-03-20T06:16:08.715Z,32.72
2023-03-20T06:18:55.369Z,34.22
2023-03-20T06:21:40.825Z,34.30
2023-03-20T06:24:30.716Z,34.65
2023-03-20T06:27:17.033Z,30.98
2023-03-20T06:30:07.213Z,27.48
2023-03-20T06:32:55.014Z,33.50
2023-03-20T06:35:46.153Z,31.10
2023-03-20T06:38:31.854Z,30.08
2023-03-20T06:41:33.696Z,32.78
2023-03-20T06:44:21.739Z,29.05
2023-03-20T06:47:29.505Z,29.13
2023-03-20T06:50:16.964Z,31.00
2023-03-20T06:53:06.712Z,25.88
2023-03-20T06:56:14.866Z,26.25
2023-03-20T06:59:00.509Z,28.15
2023-03-20T07:01:48.905Z,28.63
2023-03-20T07:04:36.543Z,31.50
2023-03-20T07:07:22.595Z,27.77
2023-03-20T07:10:10.053Z,32.42
2023-03-20T07:12:55.811Z,29.70
2023-03-20T07:15:57.519Z,30.13
2023-03-20T07:18:50.189Z,22.15
2023-03-20T07:21:35.611Z,25.58
2023-03-20T07:24:22.032Z,27.25
2023-03-20T07:27:08.664Z,26.70
2023-03-20T07:29:57.080Z,28.42
2023-03-20T07:32:43.124Z,19.40
2023-03-20T07:35:33.088Z,27.35
2023-03-20T07:38:19.714Z,26.15
2023-03-20T07:41:13.101Z,18.63
2023-03-20T07:44:03.604Z,21.13
2023-03-20T07:46:49.101Z,23.77
2023-03-20T07:49:35.013Z,21.17
2023-03-20T07:52:20.825Z,32.97
2023-03-20T07:55:09.518Z,26.85
2023-03-20T07:57:59.303Z,21.35
2023-03-20T08:00:45.039Z,25.77
2023-03-20T08:03:30.561Z,19.60
2023-03-20T08:06:16.287Z,26.25
2023-03-20T08:09:02.086Z,20.02
2023-03-20T08:11:50.232Z,26.55
2023-03-20T08:14:38.683Z,19.38
2023-03-20T08:17:27.136Z,26.63
2023-03-20T08:20:14.683Z,20.42
2023-03-20T08:22:59.955Z,20.35
2023-03-20T08:25:56.890Z,24.77
2023-03-20T08:28:48.087Z,25.92
2023-03-20T08:31:34.298Z,25.23
2023-03-20T08:34:20.801Z,21.80
2023-03-20T08:37:08.213Z,22.42
2023-03-20T08:39:53.573Z,20.40
2023-03-20T08:42:39.135Z,29.40
2023-03-20T08:45:26.295Z,22.00
2023-03-20T08:48:11.957Z,22.02
2023-03-20T08:50:58.748Z,19.88
2023-03-20T08:53:44.073Z,20.13
2023-03-20T08:56:29.547Z,27.73
2023-03-20T08:59:15.120Z,24.00
2023-03-20T09:02:00.818Z,20.70
2023-03-20T09:04:46.477Z,19.30
2023-03-20T09:07:31.963Z,23.05
2023-03-20T09:10:17.619Z,24.15
2023-03-20T09:13:15.501Z,21.75
2023-03-20T09:16:09.150Z,25.95
2023-03-20T09:18:58.533Z,24.50
2023-03-20T09:21:44.303Z,22.60
2023-03-20T09:24:31.428Z,28.92
2023-03-20T09:27:21.751Z,27.73
2023-03-20T09:30:08.309Z,25.02
2023-03-20T09:32:56.372Z,20.80
2023-03-20T09:35:43.598Z,27.52
2023-03-20T09:38:28.953Z,28.83
2023-03-20T09:41:26.142Z,22.08
2023-03-20T09:44:37.898Z,32.20
2023-03-20T09:47:35.565Z,20.80
2023-03-20T09:50:38.543Z,30.85
2023-03-20T09:53:48.602Z,24.50
2023-03-20T09:56:34.261Z,23.13
2023-03-20T09:59:20.809Z,27.77
2023-03-20T10:02:19.717Z,26.38
2023-03-20T10:05:24.862Z,27.50
2023-03-20T10:08:17.090Z,26.38
2023-03-20T10:11:05.396Z,28.77
2023-03-20T10:13:58.135Z,26.80
2023-03-20T10:16:47.125Z,27.38
2023-03-20T10:19:43.620Z,26.42
2023-03-20T10:22:32.809Z,28.73
2023-03-20T10:25:32.418Z,28.13
2023-03-20T10:28:26.952Z,22.25
2023-03-20T10:31:15.693Z,28.63
2023-03-20T10:34:19.183Z,26.63
2023-03-20T10:37:22.770Z,24.77
2023-03-20T10:40:36.826Z,26.83
2023-03-20T10:43:43.938Z,27.50
2023-03-20T10:46:33.008Z,22.02
2023-03-20T10:49:42.989Z,21.30
2023-03-20T10:52:35.506Z,26.92
2023-03-20T10:55:25.947Z,22.55
2023-03-20T10:58:21.603Z,28.70
2023-03-20T11:01:07.086Z,36.60
2023-03-20T11:03:54.769Z,23.48
2023-03-20T11:07:12.051Z,30.13
2023-03-20T11:10:07.362Z,33.30
2023-03-20T11:12:52.767Z,25.20
2023-03-20T11:15:38.217Z,23.15
2023-03-20T11:18:26.163Z,34.42
2023-03-20T11:21:18.039Z,28.23
2023-03-20T11:24:04.936Z,33.60
2023-03-20T11:26:51.876Z,30.65
2023-03-20T11:29:37.948Z,27.42
2023-03-20T11:32:33.976Z,37.97
2023-03-20T11:35:31.509Z,29.50
2023-03-20T11:38:24.493Z,31.42
2023-03-20T11:41:29.237Z,29.20
2023-03-20T11:44:25.478Z,25.80
2023-03-20T11:47:17.401Z,28.70
2023-03-20T11:50:24.136Z,25.13
2023-03-20T11:53:30.159Z,31.08
2023-03-20T11:56:23.981Z,25.63
2023-03-20T11:59:09.699Z,33.47
2023-03-20T12:01:59.369Z,28.15
2023-03-20T12:04:47.450Z,32.25
2023-03-20T12:07:36.824Z,25.48
2023-03-20T12:10:22.942Z,31.65
2023-03-20T12:13:33.161Z,38.10
2023-03-20T12:16:21.391Z,36.70
2023-03-20T12:19:19.345Z,31.13
2023-03-20T12:22:27.304Z,33.17
2023-03-20T12:25:24.793Z,29.63
2023-03-20T12:28:30.767Z,28.10
2023-03-20T12:31:33.181Z,26.85
2023-03-20T12:34:36.004Z,32.30
2023-03-20T12:37:22.322Z,25.80
2023-03-20T12:40:15.636Z,37.83
2023-03-20T12:43:12.789Z,36.05
2023-03-20T12:46:18.533Z,33.55
2023-03-20T12:52:43.351Z,40.50
2023-03-20T12:55:46.066Z,23.42
2023-03-20T12:58:46.050Z,38.45
2023-03-20T13:01:35.351Z,28.67
2023-03-20T13:04:47.453Z,31.40
2023-03-20T13:08:11.110Z,33.97
2023-03-20T13:11:33.865Z,33.83
2023-03-20T13:14:34.106Z,37.53
2023-03-20T13:17:37.430Z,43.42
2023-03-20T13:20:30.433Z,41.67
2023-03-20T13:23:33.380Z,39.20
2023-03-20T13:27:04.235Z,41.03
2023-03-20T13:30:05.359Z,38.15
2023-03-20T13:33:25.966Z,49.00
2023-03-20T13:36:24.852Z,49.45
2023-03-20T13:39:48.213Z,45.45
2023-03-20T13:42:42.153Z,60.58
2023-03-20T13:45:38.108Z,48.03
2023-03-20T13:48:36.515Z,50.40
2023-03-20T13:51:44.558Z,52.58
2023-03-20T13:55:03.881Z,58.03
2023-03-20T13:58:07.384Z,50.58
2023-03-20T14:00:59.903Z,46.70
2023-03-20T14:03:46.436Z,42.53
2023-03-20T14:06:31.497Z,42.70
2023-03-20T14:09:27.143Z,41.85
2023-03-20T14:12:13.605Z,48.45
2023-03-20T14:15:00.907Z,38.10
2023-03-20T14:17:58.590Z,42.00
2023-03-20T14:20:52.247Z,37.17
2023-03-20T14:23:47.104Z,40.78
2023-03-20T14:26:38.032Z,48.50
2023-03-20T14:29:29.509Z,45.55
2023-03-20T14:32:15.055Z,46.58
2023-03-20T14:35:21.153Z,49.08
2023-03-20T14:38:27.444Z,44.88
2023-03-20T14:41:17.445Z,49.20
2023-03-20T14:44:19.814Z,51.65
2023-03-20T14:47:36.528Z,46.05
2023-03-20T14:50:27.160Z,59.42
2023-03-20T14:53:20.085Z,49.15
2023-03-20T14:56:11.680Z,54.28
2023-03-20T14:59:06.326Z,52.60
2023-03-20T15:01:59.457Z,50.55
2023-03-20T15:04:46.728Z,60.15
2023-03-20T15:07:37.060Z,58.97
2023-03-20T15:10:26.944Z,55.47
2023-03-20T15:13:17.898Z,51.80
2023-03-20T15:16:15.101Z,60.53
2023-03-20T15:19:01.222Z,47.25
2023-03-20T15:21:49.145Z,57.58
2023-03-20T15:24:34.723Z,51.55
2023-03-20T15:27:20.636Z,57.97
2023-03-20T15:30:07.195Z,53.42
2023-03-20T15:32:57.771Z,64.03
2023-03-20T15:35:43.686Z,59.70
2023-03-20T15:38:34.408Z,58.72
2023-03-20T15:41:34.359Z,64.60
2023-03-20T15:44:23.609Z,61.38
2023-03-20T15:47:20.614Z,73.50
2023-03-20T15:50:16.797Z,83.43
2023-03-20T15:53:04.173Z,66.35
2023-03-20T15:56:17.660Z,82.32
2023-03-20T15:59:03.904Z,66.10
2023-03-20T16:01:54.052Z,77.93
2023-03-20T16:04:51.300Z,71.47
2023-03-20T16:07:42.394Z,70.00
2023-03-20T16:10:42.913Z,67.55
2023-03-20T16:13:39.201Z,57.58
2023-03-20T16:16:25.173Z,67.15
2023-03-20T16:19:17.283Z,68.68
2023-03-20T16:22:18.716Z,67.07
2023-03-20T16:25:04.668Z,54.92
2023-03-20T16:27:51.814Z,68.43
2023-03-20T16:30:37.660Z,71.13
2023-03-20T16:33:24.152Z,49.65
2023-03-20T16:36:13.497Z,59.40
2023-03-20T16:39:05.814Z,55.35
2023-03-20T16:42:07.856Z,57.72
2023-03-20T16:44:59.507Z,59.92
2023-03-20T16:47:46.101Z,52.47
2023-03-20T16:50:36.567Z,51.92
2023-03-20T16:53:24.041Z,31.35
2023-03-20T16:56:17.260Z,45.78
2023-03-20T16:59:10.832Z,66.13
2023-03-20T17:02:00.357Z,54.88
2023-03-20T17:04:48.309Z,54.75
2023-03-20T17:07:33.544Z,47.22
2023-03-20T17:10:25.119Z,52.45
2023-03-20T17:13:10.841Z,40.17
2023-03-20T17:15:56.435Z,45.65
2023-03-20T17:18:41.930Z,45.17
2023-03-20T17:21:27.515Z,51.50
2023-03-20T17:24:14.258Z,40.95
2023-03-20T17:26:59.852Z,40.33
2023-03-20T17:29:46.793Z,43.92
2023-03-20T17:32:33.599Z,51.42
2023-03-20T17:35:19.782Z,57.47
2023-03-20T17:38:05.383Z,48.40
2023-03-20T17:40:51.941Z,49.58
2023-03-20T17:43:37.352Z,46.55
2023-03-20T17:46:26.578Z,63.40
2023-03-20T17:49:15.685Z,58.78
2023-03-20T17:52:01.137Z,53.78
2023-03-20T17:54:47.761Z,58.85
2023-03-20T17:57:44.347Z,55.97
2023-03-20T18:00:29.885Z,51.17
2023-03-20T18:03:16.759Z,56.53
2023-03-20T18:06:03.500Z,60.03
2023-03-20T18:08:48.865Z,57.47
2023-03-20T18:11:34.649Z,57.28
2023-03-20T18:14:20.248Z,54.55
2023-03-20T18:17:07.080Z,54.13
2023-03-20T18:19:53.910Z,60.65
2023-03-20T18:22:39.252Z,51.38
2023-03-20T18:25:27.750Z,39.03
2023-03-20T18:28:20.546Z,37.88
2023-03-20T18:31:06.012Z,34.95
2023-03-20T18:33:53.029Z,27.00
2023-03-20T18:36:38.422Z,23.60
2023-03-20T18:39:26.144Z,23.80
2023-03-20T18:42:14.301Z,20.80
2023-03-20T18:44:59.679Z,22.35
2023-03-20T18:47:45.571Z,21.17
2023-03-20T18:50:37.668Z,28.98
2023-03-20T18:53:23.180Z,22.42
2023-03-20T18:56:18.981Z,26.00
2023-03-20T18:59:08.140Z,35.47
2023-03-20T19:01:56.046Z,34.20
2023-03-20T19:04:41.703Z,50.00
2023-03-20T19:07:27.111Z,28.75
2023-03-20T19:10:36.018Z,38.22
2023-03-20T19:13:26.550Z,39.95
2023-03-20T19:16:18.742Z,50.13
2023-03-20T19:19:07.155Z,50.72
2023-03-20T19:21:55.822Z,63.03
2023-03-20T19:24:41.099Z,59.83
2023-03-20T19:27:26.997Z,67.10
2023-03-20T19:30:31.726Z,57.88
2023-03-20T19:33:17.306Z,63.38
2023-03-20T19:36:04.360Z,65.25
2023-03-20T19:38:52.476Z,70.65
2023-03-20T19:41:38.262Z,66.40
2023-03-20T19:44:24.036Z,70.13
2023-03-20T19:47:10.048Z,73.38
2023-03-20T19:49:58.574Z,72.53
2023-03-20T19:53:00.104Z,79.57
2023-03-20T19:55:46.401Z,70.78
2023-03-20T19:58:32.560Z,65.20
2023-03-20T20:01:20.819Z,68.20
2023-03-20T20:04:06.591Z,55.42
2023-03-20T20:06:55.583Z,52.40
2023-03-20T20:09:47.541Z,53.78
2023-03-20T20:12:38.859Z,55.40
2023-03-20T20:15:28.004Z,48.95
2023-03-20T20:18:14.692Z,52.53
2023-03-20T20:24:07.819Z,43.83
2023-03-20T20:27:15.314Z,43.80
2023-03-20T20:30:02.582Z,36.25
2023-03-20T20:32:48.800Z,39.95
2023-03-20T20:35:55.842Z,36.35
2023-03-20T20:38:50.931Z,36.47
2023-03-20T20:41:36.760Z,41.90
2023-03-20T20:44:22.331Z,37.72
2023-03-20T20:47:08.429Z,34.25
2023-03-20T20:49:57.205Z,35.92
2023-03-20T20:52:43.165Z,37.50
2023-03-20T20:55:29.906Z,30.20
2023-03-20T20:58:18.088Z,37.35
2023-03-20T21:01:04.371Z,36.17
2023-03-20T21:03:49.945Z,37.17
2023-03-20T21:07:06.167Z,37.15
2023-03-20T21:09:43.881Z,49.67
2023-03-20T21:12:40.157Z,51.28
2023-03-20T21:15:30.744Z,49.13
2023-03-20T21:18:16.328Z,43.03
2023-03-20T21:21:12.479Z,54.92
2023-03-20T21:23:58.119Z,54.85
2023-03-20T21:26:43.536Z,59.08
2023-03-20T21:29:29.012Z,51.90
2023-03-20T21:32:20.747Z,52.40
2023-03-20T21:35:09.689Z,57.90
2023-03-20T21:41:15.434Z,48.10
2023-03-20T21:44:01.614Z,38.75
2023-03-20T21:59:54.358Z,37.65
2023-03-20T22:02:24.632Z,39.05
2023-03-20T22:09:10.433Z,34.08
2023-03-20T22:24:43.606Z,28.17
2023-03-20T22:27:42.891Z,27.65
2023-03-20T22:30:56.045Z,29.08
2023-03-20T22:40:33.550Z,28.08
2023-03-20T22:42:57.125Z,26.27
2023-03-20T22:46:03.271Z,29.50
2023-03-20T22:48:51.965Z,31.83
2023-03-20T22:52:02.916Z,26.42
2023-03-20T22:54:49.520Z,30.73
2023-03-20T22:57:43.886Z,26.85
2023-03-20T23:00:33.429Z,32.83
2023-03-20T23:03:33.401Z,32.15
2023-03-20T23:06:24.679Z,30.15
2023-03-20T23:09:15.372Z,29.98
2023-03-20T23:12:01.411Z,34.40
2023-03-20T23:14:46.870Z,34.97
2023-03-20T23:17:35.445Z,33.40
2023-03-20T23:20:21.789Z,33.53
2023-03-20T23:23:07.649Z,30.70
2023-03-20T23:26:16.286Z,32.30
2023-03-20T23:29:03.384Z,35.78
2023-03-20T23:31:49.917Z,33.03
2023-03-20T23:34:37.217Z,34.58
2023-03-20T23:37:23.667Z,30.55
2023-03-20T23:40:09.695Z,36.22
2023-03-20T23:42:58.469Z,33.58
2023-03-20T23:45:45.032Z,32.03
2023-03-20T23:48:30.476Z,34.97
2023-03-20T23:51:18.969Z,39.53
2023-03-20T23:54:05.219Z,39.22
2023-03-20T23:56:50.588Z,41.28
2023-03-20T23:59:37.247Z,37.72
